Terminal Aerodrome Forecast
Issued by NWS

Home | Current Version | Previous Version | Text Only | Print | Product List | Glossary On
Versions: 1 2 3 4 5 6 7 8 9 10 11 12 13 14 15 16 17 18 19 20 21 22 23 24 25 26 27 28 29 30 31 32 33 34 35
172
FTUS41 KOKX 251215 RRA
TAFGON
TAF
KGON 251215Z 2512/2612 VRB05KT 1/2SM FG VV003
     FM251700 14009KT 1SM BR OVC004
     FM251900 15010KT 4SM BR SCT008 OVC015
     FM260100 19011KT 6SM -SHRA BR SCT008 BKN025
     FM260300 27011G19KT P6SM VCSH BKN015
     FM260500 30012G20KT P6SM BKN060
     FM260700 30014G23KT P6SM SCT100=

USA.gov is the U.S. government's official web portal to all federal, state and local government web resources and services.